Time;durP1;ratioP1;P1;durP2;ratioP2;P2;SDS_P1;SDS_P2;PMS_P1;PMS_P2;Temp;Humidity;BMP_temperature;BMP_pressure;BME280_temperature;BME280_humidity;BME280_pressure;Samples;Min_cycle;Max_cycle;Signal;HPM_P1;HPM_P2
2021/04/16 00:02:01;;;;;;;6.95;2.88;;;6.20;58.20;;;;;;5102887;28;20036;-70
2021/04/16 00:04:27;;;;;;;5.05;2.88;;;6.20;58.30;;;;;;5087042;28;20048;-71
2021/04/16 00:06:53;;;;;;;4.78;2.70;;;6.10;58.40;;;;;;5103015;28;20044;-70
2021/04/16 00:09:18;;;;;;;3.97;2.50;;;6.10;58.40;;;;;;5071079;28;20135;-70
2021/04/16 00:11:44;;;;;;;4.57;2.33;;;6.10;58.50;;;;;;5070546;28;20048;-71
2021/04/16 00:14:11;;;;;;;5.68;2.47;;;6.10;58.60;;;;;;5070999;28;20052;-70
2021/04/16 00:16:37;;;;;;;4.40;2.78;;;6.10;58.70;;;;;;5103397;28;20048;-70
2021/04/16 00:19:03;;;;;;;4.95;2.67;;;6.00;58.70;;;;;;5102845;28;20048;-71
2021/04/16 00:21:29;;;;;;;4.90;2.78;;;6.00;58.80;;;;;;5103534;28;20053;-71
2021/04/16 00:23:55;;;;;;;5.53;2.55;;;6.00;58.80;;;;;;5070489;28;20085;-70
2021/04/16 00:26:21;;;;;;;4.93;3.35;;;6.00;58.80;;;;;;5086813;28;20323;-70
2021/04/16 00:28:46;;;;;;;6.60;3.22;;;6.00;58.90;;;;;;5102812;28;20049;-71
2021/04/16 00:31:15;;;;;;;5.80;3.10;;;6.00;58.90;;;;;;5102996;28;20106;-70
2021/04/16 00:33:41;;;;;;;4.72;2.80;;;6.00;59.10;;;;;;5070926;28;20546;-71
2021/04/16 00:36:07;;;;;;;4.55;2.83;;;5.90;59.10;;;;;;5102634;28;20174;-70
2021/04/16 00:38:33;;;;;;;4.85;2.78;;;5.90;59.10;;;;;;5103566;28;20182;-71
2021/04/16 00:41:02;;;;;;;5.88;2.97;;;5.90;59.20;;;;;;5069904;28;20511;-70
2021/04/16 00:43:29;;;;;;;6.35;3.28;;;5.80;59.20;;;;;;5086283;28;20047;-71
2021/04/16 00:46:13;;;;;;;5.63;2.95;;;5.80;59.20;;;;;;5052420;28;20075;-71
2021/04/16 00:49:02;;;;;;;4.47;2.55;;;5.80;59.40;;;;;;5103629;28;20040;-70
2021/04/16 00:51:33;;;;;;;4.38;2.85;;;5.80;59.50;;;;;;5084026;28;20101;-71
2021/04/16 00:54:00;;;;;;;5.10;3.20;;;5.70;59.60;;;;;;5102496;28;20473;-71
2021/04/16 00:56:26;;;;;;;4.28;2.90;;;5.70;59.60;;;;;;5085943;28;20127;-70
2021/04/16 00:58:51;;;;;;;5.55;2.97;;;5.70;59.70;;;;;;5102168;28;20119;-70
2021/04/16 01:01:17;;;;;;;5.88;3.25;;;5.70;59.70;;;;;;5103319;28;20115;-70
2021/04/16 01:03:43;;;;;;;5.15;2.95;;;5.60;59.90;;;;;;5103241;28;20040;-70
2021/04/16 01:06:10;;;;;;;5.15;2.80;;;5.60;59.80;;;;;;5102068;28;20099;-70
2021/04/16 01:08:36;;;;;;;7.13;2.78;;;5.60;60.00;;;;;;5086234;28;20044;-70
2021/04/16 01:11:02;;;;;;;6.82;3.30;;;5.60;60.00;;;;;;5085115;28;20400;-70
2021/04/16 01:13:28;;;;;;;7.15;3.30;;;5.60;60.10;;;;;;5085945;28;20132;-70
2021/04/16 01:16:03;;;;;;;4.28;2.97;;;5.60;60.20;;;;;;5085375;28;20131;-71
2021/04/16 01:18:37;;;;;;;5.18;2.60;;;5.50;60.10;;;;;;5069276;28;20040;-70
2021/04/16 01:21:05;;;;;;;5.50;3.17;;;5.60;60.50;;;;;;5084883;28;20056;-70
2021/04/16 01:23:42;;;;;;;7.25;3.53;;;5.50;60.40;;;;;;5103578;28;20465;-70
2021/04/16 01:26:07;;;;;;;5.53;3.22;;;5.50;60.50;;;;;;5072782;28;20052;-70
2021/04/16 01:28:33;;;;;;;4.53;2.95;;;5.50;60.50;;;;;;5074538;28;20192;-71
2021/04/16 01:31:01;;;;;;;5.60;3.40;;;5.50;60.60;;;;;;5089162;28;20041;-70
2021/04/16 01:33:28;;;;;;;4.93;3.03;;;5.50;60.70;;;;;;5074223;28;20044;-71
2021/04/16 01:35:53;;;;;;;6.10;3.08;;;5.50;60.70;;;;;;5089386;28;20072;-71
2021/04/16 01:38:19;;;;;;;7.85;3.60;;;5.40;60.70;;;;;;5089663;28;20481;-70
2021/04/16 01:40:45;;;;;;;5.32;3.03;;;5.40;60.80;;;;;;5089935;28;20052;-70
2021/04/16 01:43:26;;;;;;;4.20;2.72;;;5.40;60.80;;;;;;5072268;28;20722;-70
2021/04/16 01:46:03;;;;;;;5.75;2.75;;;5.40;61.30;;;;;;5106303;28;20048;-71
2021/04/16 01:48:56;;;;;;;8.52;3.50;;;5.40;61.30;;;;;;5106755;28;20040;-70
2021/04/16 01:51:33;;;;;;;5.90;3.40;;;5.30;61.40;;;;;;5073711;28;20421;-70
2021/04/16 01:54:09;;;;;;;5.00;3.08;;;5.30;61.20;;;;;;5105480;28;20219;-71
2021/04/16 01:56:35;;;;;;;5.97;2.90;;;5.30;61.20;;;;;;5105273;28;20052;-71
2021/04/16 01:59:01;;;;;;;8.43;2.88;;;5.30;61.30;;;;;;5105579;28;20483;-71
2021/04/16 02:01:27;;;;;;;6.65;2.97;;;5.20;61.30;;;;;;5106626;28;20056;-71
2021/04/16 02:03:53;;;;;;;3.75;2.53;;;5.20;61.30;;;;;;5073968;28;20486;-70
2021/04/16 02:06:18;;;;;;;4.25;2.78;;;5.20;61.50;;;;;;5072642;28;20423;-70
2021/04/16 02:08:44;;;;;;;7.28;3.30;;;5.20;61.50;;;;;;5073541;28;20123;-70
2021/04/16 02:11:10;;;;;;;5.45;3.00;;;5.20;61.60;;;;;;5072992;28;20456;-71
2021/04/16 02:13:35;;;;;;;6.57;2.70;;;5.20;62.00;;;;;;5089182;28;20397;-71
2021/04/16 02:16:01;;;;;;;6.10;3.08;;;5.20;61.60;;;;;;5071720;28;20044;-71
2021/04/16 02:18:27;;;;;;;6.45;3.13;;;5.10;61.70;;;;;;5106016;28;20056;-70
2021/04/16 02:20:54;;;;;;;5.40;3.10;;;5.10;61.70;;;;;;5073631;28;20036;-71
2021/04/16 02:23:20;;;;;;;5.05;3.05;;;5.10;61.90;;;;;;5104695;28;20500;-70
2021/04/16 02:25:46;;;;;;;6.20;3.30;;;5.10;62.00;;;;;;5072541;28;20051;-69
2021/04/16 02:28:12;;;;;;;6.70;3.22;;;5.10;61.90;;;;;;5105277;28;20049;-70
2021/04/16 02:30:37;;;;;;;7.03;3.40;;;5.00;62.00;;;;;;5073475;28;20473;-70
2021/04/16 02:33:03;;;;;;;7.32;2.88;;;5.00;62.00;;;;;;5071280;28;20048;-70
2021/04/16 02:35:29;;;;;;;6.00;3.28;;;5.00;62.10;;;;;;5088488;28;20037;-70
2021/04/16 02:37:55;;;;;;;5.20;3.25;;;5.00;62.20;;;;;;5071691;28;20137;-70
2021/04/16 02:40:22;;;;;;;7.28;3.33;;;5.00;62.10;;;;;;5072234;28;20552;-69
2021/04/16 02:42:48;;;;;;;7.82;3.35;;;5.00;62.10;;;;;;5073339;28;20048;-70
2021/04/16 02:45:15;;;;;;;6.47;3.05;;;4.90;62.20;;;;;;5104871;28;20045;-70
2021/04/16 02:47:41;;;;;;;5.53;2.90;;;4.90;62.20;;;;;;5073259;28;20040;-70
2021/04/16 02:50:09;;;;;;;6.00;3.22;;;4.90;62.20;;;;;;5104398;28;20094;-69
2021/04/16 02:52:35;;;;;;;6.28;2.92;;;4.90;62.30;;;;;;5071130;28;20480;-70
2021/04/16 02:55:02;;;;;;;6.20;3.05;;;4.90;62.30;;;;;;5072532;28;20040;-71
2021/04/16 02:57:28;;;;;;;6.18;2.95;;;4.80;62.20;;;;;;5104944;28;20052;-70
2021/04/16 02:59:54;;;;;;;9.80;3.55;;;4.80;62.40;;;;;;5071615;28;20102;-71
2021/04/16 03:02:20;;;;;;;6.10;3.83;;;4.80;62.40;;;;;;5071894;28;20044;-70
2021/04/16 03:04:46;;;;;;;4.32;2.97;;;4.80;62.50;;;;;;5072506;28;20048;-70
2021/04/16 03:07:11;;;;;;;6.75;3.65;;;4.80;62.60;;;;;;5104026;28;20041;-70
2021/04/16 03:09:37;;;;;;;6.65;3.70;;;4.70;62.60;;;;;;5105158;28;20045;-69
2021/04/16 03:12:04;;;;;;;9.00;3.70;;;4.70;62.70;;;;;;5070826;28;20044;-71
2021/04/16 03:14:29;;;;;;;4.78;3.50;;;4.70;62.80;;;;;;5087338;28;20505;-70
2021/04/16 03:16:55;;;;;;;7.38;3.70;;;4.70;63.00;;;;;;5072741;28;20048;-71
2021/04/16 03:19:21;;;;;;;7.20;3.85;;;4.70;63.00;;;;;;5071694;28;20154;-71
2021/04/16 03:21:47;;;;;;;5.38;3.50;;;4.70;63.10;;;;;;5104452;28;20049;-69
2021/04/16 03:24:12;;;;;;;8.30;4.30;;;4.70;63.10;;;;;;5086935;28;20053;-71
2021/04/16 03:26:38;;;;;;;5.57;3.50;;;4.70;63.30;;;;;;5087964;28;20056;-70
2021/04/16 03:29:04;;;;;;;6.13;3.55;;;4.70;63.30;;;;;;5104736;28;20060;-71
2021/04/16 03:31:30;;;;;;;6.03;4.05;;;4.70;63.40;;;;;;5087424;28;20050;-70
2021/04/16 03:33:56;;;;;;;6.85;4.07;;;4.70;63.50;;;;;;5087775;28;20055;-70
2021/04/16 03:36:22;;;;;;;5.50;3.83;;;4.70;63.50;;;;;;5086794;28;20106;-70
2021/04/16 03:38:48;;;;;;;8.27;4.10;;;4.70;63.60;;;;;;5104733;28;20106;-70
2021/04/16 03:41:14;;;;;;;6.65;4.13;;;4.60;63.50;;;;;;5103488;28;20481;-70
2021/04/16 03:43:42;;;;;;;7.65;3.97;;;4.60;63.60;;;;;;5087267;28;20419;-70
2021/04/16 03:46:07;;;;;;;8.82;4.72;;;4.60;63.60;;;;;;5102709;28;20040;-71
2021/04/16 03:48:33;;;;;;;8.20;4.25;;;4.60;63.60;;;;;;5104224;28;20136;-70
2021/04/16 03:50:59;;;;;;;6.85;4.25;;;4.60;63.70;;;;;;5104107;28;20044;-68
2021/04/16 03:53:25;;;;;;;7.10;3.88;;;4.60;63.80;;;;;;5103407;28;20144;-70
2021/04/16 03:55:51;;;;;;;5.15;3.70;;;4.60;63.80;;;;;;5087567;28;20040;-70
2021/04/16 03:58:17;;;;;;;7.38;3.67;;;4.60;63.90;;;;;;5070934;28;20044;-70
2021/04/16 04:00:43;;;;;;;6.53;3.63;;;4.60;63.90;;;;;;5104238;28;20056;-70
2021/04/16 04:03:10;;;;;;;7.95;4.03;;;4.60;64.00;;;;;;5086703;28;20422;-71
2021/04/16 04:05:36;;;;;;;7.85;3.65;;;4.60;64.00;;;;;;5103986;28;20036;-70
2021/04/16 04:08:02;;;;;;;7.22;3.90;;;4.60;64.10;;;;;;5071864;28;20047;-70
2021/04/16 04:10:34;;;;;;;10.02;4.63;;;4.50;64.10;;;;;;5103443;28;20113;-71
2021/04/16 04:13:00;;;;;;;7.05;3.95;;;4.50;64.20;;;;;;5102310;28;20041;-71
2021/04/16 04:15:26;;;;;;;8.82;4.88;;;4.50;64.20;;;;;;5070751;28;20063;-71
2021/04/16 04:17:52;;;;;;;6.90;4.43;;;4.50;64.10;;;;;;5087031;28;20044;-71
2021/04/16 04:20:21;;;;;;;9.32;4.28;;;4.50;64.30;;;;;;5102399;28;20044;-71
2021/04/16 04:22:46;;;;;;;6.15;3.58;;;4.50;64.50;;;;;;5071454;28;20091;-70
2021/04/16 04:25:14;;;;;;;7.55;4.05;;;4.50;64.40;;;;;;5103221;28;20072;-71
2021/04/16 04:27:40;;;;;;;7.63;3.72;;;4.50;64.50;;;;;;5103721;28;20072;-70
2021/04/16 04:30:06;;;;;;;10.75;4.47;;;4.50;64.40;;;;;;5103577;28;20075;-70
2021/04/16 04:32:32;;;;;;;9.00;3.80;;;4.50;64.50;;;;;;5102729;28;20139;-71
2021/04/16 04:34:58;;;;;;;7.80;3.97;;;4.50;64.70;;;;;;5071014;28;20217;-70
2021/04/16 04:37:23;;;;;;;5.82;3.70;;;4.50;64.70;;;;;;5102659;28;20055;-70
2021/04/16 04:39:49;;;;;;;6.55;3.88;;;4.40;64.70;;;;;;5071495;28;20331;-70
2021/04/16 04:42:15;;;;;;;7.93;4.03;;;4.50;64.70;;;;;;5102921;28;20073;-71
2021/04/16 04:44:41;;;;;;;6.15;3.55;;;4.50;64.80;;;;;;5070812;28;20523;-70
2021/04/16 04:47:08;;;;;;;6.85;3.53;;;4.50;64.70;;;;;;5103330;28;20044;-70
2021/04/16 04:49:34;;;;;;;8.43;4.25;;;4.40;65.00;;;;;;5068853;28;20534;-70
2021/04/16 04:52:08;;;;;;;8.10;4.40;;;4.40;65.20;;;;;;5103428;28;20048;-70
2021/04/16 04:54:34;;;;;;;5.93;3.75;;;4.50;65.30;;;;;;5070234;28;20106;-70
2021/04/16 04:57:00;;;;;;;9.80;4.30;;;4.40;65.10;;;;;;5103359;28;20119;-70
2021/04/16 04:59:26;;;;;;;9.98;4.32;;;4.50;65.20;;;;;;5102654;28;20128;-71
2021/04/16 05:01:51;;;;;;;6.43;3.85;;;4.40;65.30;;;;;;5103461;28;20115;-70
2021/04/16 05:04:17;;;;;;;8.88;3.95;;;4.50;65.40;;;;;;5102770;28;20090;-71
2021/04/16 05:06:43;;;;;;;6.60;3.67;;;4.40;65.40;;;;;;5086374;28;20037;-70
2021/04/16 05:09:09;;;;;;;6.65;3.35;;;4.40;65.40;;;;;;5070901;28;20146;-71
2021/04/16 05:11:34;;;;;;;8.35;4.15;;;4.50;65.60;;;;;;5068701;28;20155;-70
2021/04/16 05:14:00;;;;;;;7.72;3.55;;;4.40;65.50;;;;;;5071008;28;20388;-70
2021/04/16 05:16:26;;;;;;;7.18;4.13;;;4.50;65.70;;;;;;5081424;28;20044;-70
2021/04/16 05:18:53;;;;;;;6.47;4.20;;;4.50;65.90;;;;;;5089711;28;20044;-70
2021/04/16 05:21:19;;;;;;;6.20;3.67;;;4.50;66.00;;;;;;5089654;28;20133;-71
2021/04/16 05:23:45;;;;;;;5.60;3.78;;;4.50;66.00;;;;;;5089909;28;20152;-69
2021/04/16 05:26:11;;;;;;;8.75;4.30;;;4.50;66.10;;;;;;5090220;28;20048;-70
2021/04/16 05:28:36;;;;;;;8.00;4.25;;;4.50;66.10;;;;;;5088128;28;20141;-70
2021/04/16 05:31:02;;;;;;;11.32;3.80;;;4.50;66.00;;;;;;5088754;28;20090;-70
2021/04/16 05:33:28;;;;;;;5.38;3.75;;;4.50;66.10;;;;;;5089441;28;20051;-70
2021/04/16 05:35:54;;;;;;;6.32;3.92;;;4.50;66.00;;;;;;5090031;28;20420;-71
2021/04/16 05:38:20;;;;;;;4.63;3.55;;;4.50;66.30;;;;;;5072034;28;20044;-71
2021/04/16 05:40:46;;;;;;;6.70;3.63;;;4.60;66.40;;;;;;5071596;28;20043;-69
2021/04/16 05:43:11;;;;;;;8.95;3.65;;;4.50;66.30;;;;;;5090044;28;20051;-70
2021/04/16 05:45:37;;;;;;;9.50;4.43;;;4.50;66.40;;;;;;5089516;28;20042;-71
2021/04/16 05:48:03;;;;;;;6.95;4.07;;;4.50;66.60;;;;;;5089230;28;20123;-65
2021/04/16 05:50:29;;;;;;;3.75;1.77;;;4.60;66.50;;;;;;5089458;28;20051;-73
2021/04/16 05:52:55;;;;;;;7.60;3.92;;;4.90;69.70;;;;;;5056001;28;20480;-71
2021/04/16 05:55:20;;;;;;;7.25;3.50;;;5.10;67.40;;;;;;5089348;28;20147;-74
2021/04/16 05:57:47;;;;;;;7.13;3.97;;;5.10;66.70;;;;;;5089312;28;20051;-71
2021/04/16 06:00:13;;;;;;;9.73;3.92;;;5.10;66.40;;;;;;5089509;28;20364;-71
2021/04/16 06:02:41;;;;;;;7.43;3.60;;;5.10;66.40;;;;;;5088665;28;20044;-73
2021/04/16 06:05:13;;;;;;;10.70;4.50;;;5.00;66.40;;;;;;5055505;28;20075;-74
2021/04/16 06:07:39;;;;;;;6.93;4.20;;;5.00;66.70;;;;;;5088336;28;20044;-72
2021/04/16 06:10:07;;;;;;;11.60;4.55;;;5.00;66.80;;;;;;5091016;28;20442;-74
2021/04/16 06:12:34;;;;;;;10.50;4.03;;;4.90;66.80;;;;;;5092247;28;20115;-75
2021/04/16 06:15:00;;;;;;;9.02;5.10;;;4.90;67.00;;;;;;5076315;28;20032;-73
2021/04/16 06:17:26;;;;;;;5.22;3.28;;;4.90;67.00;;;;;;5055198;28;20037;-73
2021/04/16 06:19:52;;;;;;;9.80;4.20;;;4.90;67.20;;;;;;5072668;28;20076;-74
2021/04/16 06:22:19;;;;;;;7.20;4.65;;;5.00;67.20;;;;;;5081976;28;20429;-78
2021/04/16 06:24:45;;;;;;;7.68;4.07;;;4.90;67.20;;;;;;5074563;28;20586;-74
2021/04/16 06:27:11;;;;;;;10.45;4.70;;;4.90;67.30;;;;;;5075342;28;20436;-75
2021/04/16 06:29:36;;;;;;;6.63;4.13;;;4.90;67.40;;;;;;5073463;28;20043;-75
2021/04/16 06:32:02;;;;;;;7.82;4.97;;;4.90;67.40;;;;;;5091888;27;20063;-75
2021/04/16 06:34:28;;;;;;;7.97;3.95;;;5.00;67.50;;;;;;5091153;28;20042;-76
2021/04/16 06:36:54;;;;;;;6.43;4.20;;;5.00;67.40;;;;;;5091713;28;20189;-74
2021/04/16 06:39:20;;;;;;;9.20;4.70;;;5.00;67.50;;;;;;5091819;28;20197;-74
2021/04/16 06:41:46;;;;;;;9.90;3.90;;;5.00;67.50;;;;;;5074215;28;20157;-75
2021/04/16 06:44:17;;;;;;;8.90;3.88;;;5.00;67.90;;;;;;5075798;28;20044;-75
2021/04/16 06:46:46;;;;;;;8.95;3.95;;;5.00;67.50;;;;;;5074734;28;20039;-74
2021/04/16 06:49:26;;;;;;;8.18;3.83;;;5.00;67.30;;;;;;5092443;28;20047;-75
2021/04/16 06:52:11;;;;;;;8.93;4.38;;;5.10;67.50;;;;;;5092898;28;20055;-75
2021/04/16 06:55:07;;;;;;;7.03;4.00;;;5.10;67.60;;;;;;5092715;28;20112;-75
2021/04/16 06:57:38;;;;;;;6.72;3.67;;;5.10;67.50;;;;;;5077211;28;20043;-75
2021/04/16 07:00:14;;;;;;;9.50;4.22;;;5.10;67.40;;;;;;5058927;28;20062;-74
2021/04/16 07:02:46;;;;;;;7.15;3.53;;;5.20;67.80;;;;;;5090895;28;20040;-75
2021/04/16 07:05:30;;;;;;;8.32;4.85;;;5.20;67.80;;;;;;5075956;28;20107;-75
2021/04/16 07:07:57;;;;;;;7.55;4.50;;;5.20;68.20;;;;;;5091833;28;20044;-75
2021/04/16 07:10:29;;;;;;;8.32;3.88;;;5.30;68.70;;;;;;5058456;28;20039;-74
2021/04/16 07:12:55;;;;;;;8.80;4.60;;;5.30;69.10;;;;;;5091186;28;20040;-74
2021/04/16 07:15:29;;;;;;;7.35;4.45;;;5.40;69.20;;;;;;5074818;28;20044;-74
2021/04/16 07:17:54;;;;;;;7.95;4.72;;;5.40;69.20;;;;;;5091796;28;20074;-74
2021/04/16 07:20:22;;;;;;;8.38;4.72;;;5.40;69.20;;;;;;5091322;27;20051;-75
2021/04/16 07:22:55;;;;;;;8.32;4.90;;;5.50;69.40;;;;;;5072817;28;20138;-74
2021/04/16 07:25:41;;;;;;;7.88;4.90;;;5.50;70.30;;;;;;5092714;28;20040;-73
2021/04/16 07:28:08;;;;;;;9.30;4.85;;;5.60;69.60;;;;;;5091806;28;20052;-74
2021/04/16 07:30:47;;;;;;;9.75;4.70;;;5.60;69.40;;;;;;5091128;28;20043;-76
2021/04/16 07:33:32;;;;;;;10.23;4.70;;;5.70;69.40;;;;;;5109507;27;20044;-75
2021/04/16 07:36:29;;;;;;;7.60;4.13;;;5.80;69.80;;;;;;5090580;28;20044;-75
2021/04/16 07:39:14;;;;;;;11.80;5.00;;;5.80;69.70;;;;;;5073501;28;20110;-73
2021/04/16 07:41:45;;;;;;;8.80;4.40;;;5.80;69.30;;;;;;5075433;28;20052;-75
2021/04/16 07:44:25;;;;;;;11.85;4.72;;;5.90;69.30;;;;;;5091590;28;20052;-74
2021/04/16 07:46:58;;;;;;;9.40;4.72;;;5.90;69.50;;;;;;5091272;28;20052;-74
2021/04/16 07:49:30;;;;;;;6.97;4.85;;;6.00;69.40;;;;;;5057588;28;20086;-74
2021/04/16 07:51:58;;;;;;;6.13;4.22;;;6.00;69.30;;;;;;5056938;28;20121;-74
2021/04/16 07:54:26;;;;;;;7.68;4.03;;;6.00;69.30;;;;;;5073882;28;20044;-74
2021/04/16 07:57:22;;;;;;;10.13;6.20;;;6.10;69.50;;;;;;5073114;28;20055;-74
2021/04/16 08:00:19;;;;;;;9.43;5.63;;;6.10;69.80;;;;;;5072704;28;20127;-75
2021/04/16 08:02:47;;;;;;;9.32;4.32;;;6.20;69.30;;;;;;5089927;28;20075;-74
2021/04/16 08:05:26;;;;;;;7.10;4.18;;;6.20;69.20;;;;;;5073855;28;20048;-75
2021/04/16 08:08:07;;;;;;;9.60;3.78;;;6.20;69.00;;;;;;5074658;28;20081;-74
2021/04/16 08:10:32;;;;;;;8.38;4.43;;;6.30;69.30;;;;;;5091916;28;20063;-75
2021/04/16 08:13:13;;;;;;;10.00;4.05;;;6.30;68.80;;;;;;5123871;27;20064;-74
2021/04/16 08:15:39;;;;;;;8.45;3.63;;;6.40;68.80;;;;;;5090607;28;20126;-75
2021/04/16 08:18:25;;;;;;;6.93;3.67;;;6.40;68.50;;;;;;5073926;28;20135;-74
2021/04/16 08:21:08;;;;;;;8.00;3.58;;;6.50;68.40;;;;;;5089872;28;20051;-74
2021/04/16 08:23:53;;;;;;;8.00;3.65;;;6.50;68.20;;;;;;5073443;28;20056;-74
2021/04/16 08:26:20;;;;;;;5.72;2.80;;;6.60;67.90;;;;;;5074334;28;20071;-75
2021/04/16 08:29:19;;;;;;;5.93;2.85;;;6.60;67.30;;;;;;5073113;28;20052;-74
2021/04/16 08:31:55;;;;;;;5.43;2.42;;;6.70;67.00;;;;;;5091270;28;20064;-75
2021/04/16 08:35:00;;;;;;;6.50;2.72;;;6.80;66.70;;;;;;5090498;28;20067;-74
2021/04/16 08:37:43;;;;;;;4.80;2.50;;;6.80;66.10;;;;;;5028822;28;20073;-75
2021/04/16 08:40:11;;;;;;;5.18;1.95;;;6.90;65.90;;;;;;5084851;28;20473;-74
2021/04/16 08:42:37;;;;;;;3.90;1.85;;;7.00;65.60;;;;;;5073605;28;20056;-74
2021/04/16 08:45:09;;;;;;;4.90;1.65;;;7.00;65.00;;;;;;5072523;28;20102;-75
2021/04/16 08:47:49;;;;;;;4.80;2.15;;;7.10;64.40;;;;;;5091326;28;20472;-75
2021/04/16 08:50:15;;;;;;;5.68;1.80;;;7.10;64.00;;;;;;5091474;28;20127;-74
2021/04/16 08:52:52;;;;;;;5.80;2.20;;;7.20;63.80;;;;;;5072645;28;20106;-76
2021/04/16 08:55:38;;;;;;;4.38;1.90;;;7.20;63.20;;;;;;5074000;28;20089;-75
2021/04/16 08:58:07;;;;;;;6.32;1.95;;;7.30;62.60;;;;;;5073482;28;20047;-75
2021/04/16 09:00:36;;;;;;;3.22;1.75;;;7.40;62.40;;;;;;5091231;28;20040;-74
2021/04/16 09:03:04;;;;;;;3.35;1.60;;;7.50;62.20;;;;;;5072285;28;20039;-75
2021/04/16 09:05:32;;;;;;;3.50;1.95;;;7.60;61.90;;;;;;5090098;28;20044;-75
2021/04/16 09:08:07;;;;;;;2.95;1.80;;;7.70;61.70;;;;;;5072229;28;20119;-75
2021/04/16 09:10:40;;;;;;;3.72;1.67;;;7.80;61.10;;;;;;5090960;28;20070;-74
2021/04/16 09:13:08;;;;;;;3.78;1.73;;;7.80;60.80;;;;;;5055653;28;20048;-75
2021/04/16 09:15:33;;;;;;;5.70;2.15;;;7.90;60.20;;;;;;5089962;28;20054;-75
2021/04/16 09:17:59;;;;;;;3.65;1.60;;;8.00;59.80;;;;;;5088817;28;20040;-76
2021/04/16 09:20:48;;;;;;;4.00;1.55;;;8.20;59.50;;;;;;5089567;28;20040;-75
2021/04/16 09:23:40;;;;;;;6.85;1.95;;;8.20;58.70;;;;;;5089034;28;20095;-75
2021/04/16 09:26:09;;;;;;;4.60;1.73;;;8.30;58.20;;;;;;5088805;28;20091;-75
2021/04/16 09:28:53;;;;;;;4.40;1.48;;;8.50;58.70;;;;;;5072858;28;20081;-74
2021/04/16 09:31:22;;;;;;;4.55;1.92;;;8.60;58.70;;;;;;5073233;28;20055;-74
2021/04/16 09:33:48;;;;;;;5.40;2.08;;;8.80;58.30;;;;;;5088539;28;20046;-75
2021/04/16 09:36:26;;;;;;;4.50;1.30;;;8.90;58.00;;;;;;5072476;28;20048;-75
2021/04/16 09:38:52;;;;;;;3.83;1.83;;;9.00;58.00;;;;;;5089674;28;20070;-75
2021/04/16 09:41:23;;;;;;;4.40;1.48;;;9.20;57.70;;;;;;5089319;28;20147;-76
2021/04/16 09:44:00;;;;;;;3.25;1.42;;;9.40;57.40;;;;;;5088781;28;20042;-75
2021/04/16 09:46:33;;;;;;;2.33;1.35;;;9.60;57.10;;;;;;5061609;28;20097;-75
2021/04/16 09:49:24;;;;;;;3.08;1.35;;;9.80;57.20;;;;;;5093843;28;20154;-74
2021/04/16 09:51:51;;;;;;;3.42;1.50;;;10.00;57.30;;;;;;5091668;28;20040;-75
2021/04/16 09:54:23;;;;;;;4.30;1.73;;;10.20;56.80;;;;;;5076470;28;20036;-76
2021/04/16 09:57:01;;;;;;;2.42;1.15;;;10.30;56.10;;;;;;5093628;28;20048;-76
2021/04/16 09:59:30;;;;;;;3.58;1.67;;;10.50;56.20;;;;;;5092857;28;20048;-75
2021/04/16 10:02:11;;;;;;;3.13;1.17;;;10.70;56.20;;;;;;5092411;28;20044;-76
2021/04/16 10:04:55;;;;;;;3.03;1.07;;;11.00;57.10;;;;;;5094196;28;20063;-75
2021/04/16 10:07:31;;;;;;;4.35;1.83;;;11.10;55.80;;;;;;5076983;28;20544;-74
2021/04/16 10:10:02;;;;;;;2.78;1.45;;;11.40;56.00;;;;;;5110408;27;20119;-74
2021/04/16 10:12:29;;;;;;;3.85;1.30;;;11.50;55.70;;;;;;5076230;28;20080;-74
2021/04/16 10:14:54;;;;;;;3.10;1.20;;;11.80;55.90;;;;;;5075449;28;20044;-74
2021/04/16 10:17:23;;;;;;;3.25;1.30;;;12.00;55.90;;;;;;5059868;28;20055;-75
2021/04/16 10:20:05;;;;;;;3.05;1.45;;;12.10;55.60;;;;;;5093464;28;20093;-75
2021/04/16 10:22:33;;;;;;;4.22;2.08;;;12.40;55.30;;;;;;5078242;28;20059;-74
2021/04/16 10:26:18;;;;;;;4.20;1.50;;;12.70;55.00;;;;;;5092258;28;20074;-75
2021/04/16 12:40:21;;;;;;;3.88;1.60;;;18.70;35.40;;;;;;5089289;28;20040;-72
2021/04/16 12:42:47;;;;;;;4.50;1.70;;;18.80;35.20;;;;;;5088519;28;20059;-72
2021/04/16 12:45:13;;;;;;;3.20;2.15;;;18.90;35.20;;;;;;5104416;28;20424;-73
2021/04/16 12:47:39;;;;;;;5.35;2.13;;;19.00;35.30;;;;;;5119675;27;20051;-73
2021/04/16 12:50:06;;;;;;;5.13;2.00;;;19.00;35.60;;;;;;5071716;28;20548;-74
2021/04/16 12:52:31;;;;;;;4.93;1.80;;;18.90;35.30;;;;;;5052168;28;20047;-71
2021/04/16 12:54:57;;;;;;;5.20;1.77;;;18.70;35.10;;;;;;5121523;27;20040;-72
2021/04/16 12:57:27;;;;;;;3.67;1.88;;;18.50;35.30;;;;;;5118944;27;20040;-72
2021/04/16 12:59:53;;;;;;;3.45;1.83;;;18.30;35.00;;;;;;5122109;27;20036;-73
2021/04/16 13:02:27;;;;;;;3.45;1.52;;;18.30;35.60;;;;;;5087526;28;20456;-73
2021/04/16 13:04:57;;;;;;;3.17;1.70;;;18.40;35.30;;;;;;5071078;28;20055;-71
2021/04/16 13:07:24;;;;;;;3.15;1.58;;;18.50;35.20;;;;;;5087299;28;20047;-71
2021/04/16 13:09:50;;;;;;;4.20;1.58;;;18.60;34.90;;;;;;5071145;28;20400;-72
2021/04/16 13:12:16;;;;;;;4.30;1.83;;;18.80;35.00;;;;;;5086553;28;20155;-71
2021/04/16 13:14:42;;;;;;;4.55;2.00;;;18.90;34.70;;;;;;5087842;28;20119;-71
2021/04/16 13:17:10;;;;;;;3.42;1.70;;;19.00;34.10;;;;;;5087648;28;20787;-73
2021/04/16 13:19:36;;;;;;;2.78;1.45;;;19.10;33.80;;;;;;5088224;28;20040;-76
2021/04/16 13:22:07;;;;;;;3.92;1.85;;;19.20;33.80;;;;;;5092268;28;20040;-72
2021/04/16 13:24:33;;;;;;;5.30;2.22;;;19.40;33.80;;;;;;5091558;28;20054;-74
2021/04/16 13:26:59;;;;;;;5.57;2.13;;;19.50;33.60;;;;;;5076175;28;20040;-74
2021/04/16 13:29:25;;;;;;;5.30;2.35;;;19.40;33.60;;;;;;5057201;28;20055;-72
2021/04/16 13:31:51;;;;;;;3.75;1.88;;;19.20;33.40;;;;;;5092223;28;20036;-74
2021/04/16 13:34:17;;;;;;;4.97;2.75;;;19.00;34.00;;;;;;5091356;28;20499;-74
2021/04/16 13:36:43;;;;;;;4.70;2.65;;;19.00;33.80;;;;;;5091751;28;20058;-74
2021/04/16 13:39:09;;;;;;;5.18;2.40;;;18.90;34.10;;;;;;5092112;28;20048;-73
2021/04/16 13:41:35;;;;;;;5.40;2.72;;;18.70;34.10;;;;;;5092679;28;20040;-73
2021/04/16 13:44:01;;;;;;;4.45;1.95;;;18.50;34.10;;;;;;5072482;28;20059;-74
2021/04/16 13:46:28;;;;;;;6.15;2.80;;;18.30;34.20;;;;;;5088700;28;20072;-74
2021/04/16 13:48:54;;;;;;;4.40;2.58;;;18.30;34.40;;;;;;5075248;28;20436;-73
2021/04/16 13:51:21;;;;;;;5.10;2.20;;;18.40;34.60;;;;;;5091381;28;20044;-74
2021/04/16 13:53:47;;;;;;;3.22;2.20;;;18.50;34.30;;;;;;5091813;28;20114;-73
2021/04/16 13:56:13;;;;;;;6.72;2.30;;;18.60;34.10;;;;;;5125876;27;20177;-74
2021/04/16 13:58:39;;;;;;;3.72;2.10;;;18.80;33.80;;;;;;5108707;27;20040;-73
2021/04/16 14:01:06;;;;;;;3.80;2.10;;;18.90;33.50;;;;;;5091604;28;20044;-74
2021/04/16 14:03:37;;;;;;;4.75;2.28;;;18.90;33.40;;;;;;5073537;28;20032;-75
2021/04/16 14:06:05;;;;;;;5.28;2.50;;;18.70;33.40;;;;;;5074590;28;20168;-74
2021/04/16 14:08:32;;;;;;;6.70;2.85;;;18.50;34.00;;;;;;5090495;28;20181;-74
2021/04/16 14:10:59;;;;;;;6.90;2.58;;;18.30;34.30;;;;;;5092786;28;20036;-74
2021/04/16 14:13:27;;;;;;;5.57;2.67;;;18.10;34.90;;;;;;5090074;28;20119;-74
2021/04/16 14:15:54;;;;;;;4.15;2.50;;;17.80;35.00;;;;;;5073615;28;20040;-74
2021/04/16 14:18:38;;;;;;;5.38;2.40;;;17.80;35.20;;;;;;5074281;28;20078;-75
2021/04/16 14:21:04;;;;;;;6.00;2.50;;;17.90;35.20;;;;;;5059036;28;20071;-75
2021/04/16 14:23:30;;;;;;;4.50;2.70;;;18.10;35.00;;;;;;5087341;28;20488;-74
2021/04/16 14:25:56;;;;;;;5.10;2.70;;;18.20;35.20;;;;;;5120157;27;20058;-74
2021/04/16 14:28:23;;;;;;;2.90;1.90;;;18.40;34.70;;;;;;5073763;28;20464;-73
2021/04/16 14:30:50;;;;;;;5.03;2.38;;;18.50;34.80;;;;;;5071035;28;20040;-74
2021/04/16 14:33:19;;;;;;;5.72;2.55;;;18.60;34.80;;;;;;5091210;28;20368;-74
2021/04/16 14:35:45;;;;;;;4.55;2.33;;;18.70;35.20;;;;;;5090611;28;20040;-73
2021/04/16 14:38:10;;;;;;;5.15;2.58;;;18.80;34.90;;;;;;5090473;28;20126;-74
2021/04/16 14:40:36;;;;;;;7.22;3.00;;;18.90;34.40;;;;;;5075456;28;20467;-74
2021/04/16 14:43:04;;;;;;;4.60;2.42;;;19.00;34.30;;;;;;5090750;28;20042;-74
2021/04/16 14:45:33;;;;;;;4.70;2.42;;;19.00;34.00;;;;;;5087388;28;20036;-74
2021/04/16 14:47:59;;;;;;;4.50;2.05;;;18.80;33.70;;;;;;5090355;28;20044;-74
2021/04/16 14:50:25;;;;;;;5.05;2.22;;;18.70;33.90;;;;;;5072690;28;20044;-75
2021/04/16 14:52:51;;;;;;;5.28;2.53;;;18.60;34.00;;;;;;5090640;28;20040;-70
2021/04/16 14:55:21;;;;;;;4.47;1.88;;;18.60;34.50;;;;;;5091628;28;20176;-70
2021/04/16 14:57:47;;;;;;;3.95;1.67;;;18.80;36.00;;;;;;5073739;28;20055;-71
2021/04/16 15:00:17;;;;;;;3.47;2.15;;;18.90;37.40;;;;;;5090476;28;20428;-69
2021/04/16 15:02:43;;;;;;;4.35;2.10;;;19.00;35.90;;;;;;5089971;28;20039;-71
2021/04/16 15:05:10;;;;;;;5.07;2.53;;;19.10;36.50;;;;;;5092166;28;20174;-73
2021/04/16 15:08:03;;;;;;;6.72;2.83;;;19.20;36.20;;;;;;5089514;28;20040;-75
2021/04/16 15:10:34;;;;;;;6.75;2.45;;;19.10;33.70;;;;;;5069843;28;20033;-74
2021/04/16 15:13:00;;;;;;;5.20;2.47;;;18.90;34.80;;;;;;5085058;28;20036;-73
2021/04/16 15:15:26;;;;;;;4.47;2.65;;;18.80;34.40;;;;;;5089604;28;20054;-74
2021/04/16 15:17:53;;;;;;;6.93;1.98;;;18.70;34.40;;;;;;5090219;28;20086;-74